sensor_id;sensor_type;location;lat;lon;timestamp;P1;durP1;ratioP1;P2;durP2;ratioP2
42000;SDS011;27689;48.390;10.856;2023-12-22T00:00:26;0.73;;;0.40;;
42000;SDS011;27689;48.390;10.856;2023-12-22T00:03:10;2.67;;;1.05;;
42000;SDS011;27689;48.390;10.856;2023-12-22T00:05:54;2.53;;;0.50;;
42000;SDS011;27689;48.390;10.856;2023-12-22T00:08:38;1.27;;;0.60;;
42000;SDS011;27689;48.390;10.856;2023-12-22T00:11:22;1.65;;;0.60;;
42000;SDS011;27689;48.390;10.856;2023-12-22T00:14:06;2.43;;;0.73;;
42000;SDS011;27689;48.390;10.856;2023-12-22T00:16:50;3.80;;;0.88;;
42000;SDS011;27689;48.390;10.856;2023-12-22T00:19:34;1.88;;;0.70;;
42000;SDS011;27689;48.390;10.856;2023-12-22T00:22:18;2.60;;;0.73;;
42000;SDS011;27689;48.390;10.856;2023-12-22T00:25:02;0.98;;;0.65;;
42000;SDS011;27689;48.390;10.856;2023-12-22T00:27:46;0.88;;;0.60;;
42000;SDS011;27689;48.390;10.856;2023-12-22T00:30:30;0.90;;;0.63;;
42000;SDS011;27689;48.390;10.856;2023-12-22T00:33:13;2.27;;;0.60;;
42000;SDS011;27689;48.390;10.856;2023-12-22T00:35:57;0.82;;;0.60;;
42000;SDS011;27689;48.390;10.856;2023-12-22T00:38:42;3.75;;;0.90;;
42000;SDS011;27689;48.390;10.856;2023-12-22T00:41:26;1.33;;;0.60;;
42000;SDS011;27689;48.390;10.856;2023-12-22T00:44:10;1.77;;;0.73;;
42000;SDS011;27689;48.390;10.856;2023-12-22T00:46:53;2.00;;;0.50;;
42000;SDS011;27689;48.390;10.856;2023-12-22T00:49:37;0.90;;;0.65;;
42000;SDS011;27689;48.390;10.856;2023-12-22T00:52:21;0.90;;;0.43;;
42000;SDS011;27689;48.390;10.856;2023-12-22T00:55:05;1.50;;;0.70;;
42000;SDS011;27689;48.390;10.856;2023-12-22T00:57:49;1.15;;;0.55;;
42000;SDS011;27689;48.390;10.856;2023-12-22T01:00:33;1.77;;;0.55;;
42000;SDS011;27689;48.390;10.856;2023-12-22T01:03:16;0.98;;;0.40;;
42000;SDS011;27689;48.390;10.856;2023-12-22T01:06:00;0.40;;;0.40;;
42000;SDS011;27689;48.390;10.856;2023-12-22T01:08:44;1.70;;;0.60;;
42000;SDS011;27689;48.390;10.856;2023-12-22T01:11:28;1.10;;;0.57;;
42000;SDS011;27689;48.390;10.856;2023-12-22T01:14:12;0.93;;;0.50;;
42000;SDS011;27689;48.390;10.856;2023-12-22T01:16:59;0.30;;;0.30;;
42000;SDS011;27689;48.390;10.856;2023-12-22T01:19:43;2.55;;;0.50;;
42000;SDS011;27689;48.390;10.856;2023-12-22T01:22:28;1.05;;;0.40;;
42000;SDS011;27689;48.390;10.856;2023-12-22T01:25:14;0.95;;;0.50;;
42000;SDS011;27689;48.390;10.856;2023-12-22T01:27:58;1.75;;;0.50;;
42000;SDS011;27689;48.390;10.856;2023-12-22T01:30:43;1.95;;;0.40;;
42000;SDS011;27689;48.390;10.856;2023-12-22T01:33:27;0.40;;;0.40;;
42000;SDS011;27689;48.390;10.856;2023-12-22T01:36:11;0.30;;;0.30;;
42000;SDS011;27689;48.390;10.856;2023-12-22T01:38:54;1.27;;;0.60;;
42000;SDS011;27689;48.390;10.856;2023-12-22T01:41:38;0.60;;;0.40;;
42000;SDS011;27689;48.390;10.856;2023-12-22T01:44:22;0.43;;;0.43;;
42000;SDS011;27689;48.390;10.856;2023-12-22T01:47:07;0.85;;;0.50;;
42000;SDS011;27689;48.390;10.856;2023-12-22T01:49:50;2.33;;;0.40;;
42000;SDS011;27689;48.390;10.856;2023-12-22T01:52:36;1.17;;;0.50;;
42000;SDS011;27689;48.390;10.856;2023-12-22T01:55:24;0.40;;;0.40;;
42000;SDS011;27689;48.390;10.856;2023-12-22T01:58:08;0.73;;;0.43;;
42000;SDS011;27689;48.390;10.856;2023-12-22T02:00:54;0.30;;;0.30;;
42000;SDS011;27689;48.390;10.856;2023-12-22T02:06:23;0.40;;;0.40;;
42000;SDS011;27689;48.390;10.856;2023-12-22T02:09:08;0.47;;;0.47;;
42000;SDS011;27689;48.390;10.856;2023-12-22T02:11:52;0.20;;;0.20;;
42000;SDS011;27689;48.390;10.856;2023-12-22T02:14:36;0.30;;;0.30;;
42000;SDS011;27689;48.390;10.856;2023-12-22T02:17:22;0.65;;;0.30;;
42000;SDS011;27689;48.390;10.856;2023-12-22T02:20:10;0.60;;;0.60;;
42000;SDS011;27689;48.390;10.856;2023-12-22T02:22:54;0.30;;;0.30;;
42000;SDS011;27689;48.390;10.856;2023-12-22T02:25:38;0.52;;;0.30;;
42000;SDS011;27689;48.390;10.856;2023-12-22T02:28:22;0.90;;;0.50;;
42000;SDS011;27689;48.390;10.856;2023-12-22T02:31:09;0.30;;;0.30;;
42000;SDS011;27689;48.390;10.856;2023-12-22T02:34:01;0.30;;;0.30;;
42000;SDS011;27689;48.390;10.856;2023-12-22T02:36:50;0.50;;;0.40;;
42000;SDS011;27689;48.390;10.856;2023-12-22T02:39:37;0.30;;;0.30;;
42000;SDS011;27689;48.390;10.856;2023-12-22T02:42:21;0.90;;;0.30;;
42000;SDS011;27689;48.390;10.856;2023-12-22T02:45:17;0.35;;;0.30;;
42000;SDS011;27689;48.390;10.856;2023-12-22T02:48:02;0.65;;;0.30;;
42000;SDS011;27689;48.390;10.856;2023-12-22T02:50:47;0.32;;;0.32;;
42000;SDS011;27689;48.390;10.856;2023-12-22T02:53:31;0.55;;;0.30;;
42000;SDS011;27689;48.390;10.856;2023-12-22T02:56:14;0.32;;;0.32;;
42000;SDS011;27689;48.390;10.856;2023-12-22T02:58:58;1.45;;;0.50;;
42000;SDS011;27689;48.390;10.856;2023-12-22T03:01:42;0.43;;;0.40;;
42000;SDS011;27689;48.390;10.856;2023-12-22T03:04:26;0.40;;;0.40;;
42000;SDS011;27689;48.390;10.856;2023-12-22T03:07:10;0.30;;;0.30;;
42000;SDS011;27689;48.390;10.856;2023-12-22T03:09:54;0.40;;;0.40;;
42000;SDS011;27689;48.390;10.856;2023-12-22T03:12:38;0.40;;;0.40;;
42000;SDS011;27689;48.390;10.856;2023-12-22T03:15:22;1.25;;;0.50;;
42000;SDS011;27689;48.390;10.856;2023-12-22T03:18:06;0.30;;;0.30;;
42000;SDS011;27689;48.390;10.856;2023-12-22T03:20:50;0.45;;;0.45;;
42000;SDS011;27689;48.390;10.856;2023-12-22T03:23:34;0.30;;;0.30;;
42000;SDS011;27689;48.390;10.856;2023-12-22T03:26:18;0.43;;;0.43;;
42000;SDS011;27689;48.390;10.856;2023-12-22T03:29:02;2.55;;;0.60;;
42000;SDS011;27689;48.390;10.856;2023-12-22T03:31:46;2.83;;;0.80;;
42000;SDS011;27689;48.390;10.856;2023-12-22T03:34:30;3.72;;;0.85;;
42000;SDS011;27689;48.390;10.856;2023-12-22T03:37:14;7.43;;;3.22;;
42000;SDS011;27689;48.390;10.856;2023-12-22T03:39:58;4.10;;;1.65;;
42000;SDS011;27689;48.390;10.856;2023-12-22T03:42:42;4.65;;;1.75;;
42000;SDS011;27689;48.390;10.856;2023-12-22T03:45:26;5.25;;;1.10;;
42000;SDS011;27689;48.390;10.856;2023-12-22T03:48:10;3.93;;;1.30;;
42000;SDS011;27689;48.390;10.856;2023-12-22T03:50:54;4.90;;;1.27;;
42000;SDS011;27689;48.390;10.856;2023-12-22T03:53:38;8.70;;;3.88;;
42000;SDS011;27689;48.390;10.856;2023-12-22T03:56:22;2.83;;;1.33;;
42000;SDS011;27689;48.390;10.856;2023-12-22T03:59:05;5.77;;;1.40;;
42000;SDS011;27689;48.390;10.856;2023-12-22T04:01:50;3.83;;;1.45;;
42000;SDS011;27689;48.390;10.856;2023-12-22T04:04:38;3.10;;;0.93;;
42000;SDS011;27689;48.390;10.856;2023-12-22T04:07:23;5.63;;;1.02;;
42000;SDS011;27689;48.390;10.856;2023-12-22T04:10:07;5.45;;;1.25;;
42000;SDS011;27689;48.390;10.856;2023-12-22T04:12:51;6.85;;;1.10;;
42000;SDS011;27689;48.390;10.856;2023-12-22T04:15:35;7.72;;;1.35;;
42000;SDS011;27689;48.390;10.856;2023-12-22T04:18:19;4.05;;;1.10;;
42000;SDS011;27689;48.390;10.856;2023-12-22T04:21:03;5.22;;;1.13;;
42000;SDS011;27689;48.390;10.856;2023-12-22T04:23:47;6.10;;;1.20;;
42000;SDS011;27689;48.390;10.856;2023-12-22T04:26:31;3.30;;;1.27;;
42000;SDS011;27689;48.390;10.856;2023-12-22T04:29:14;5.33;;;1.13;;
42000;SDS011;27689;48.390;10.856;2023-12-22T04:31:59;5.22;;;1.23;;
42000;SDS011;27689;48.390;10.856;2023-12-22T04:34:43;4.85;;;1.10;;
42000;SDS011;27689;48.390;10.856;2023-12-22T04:37:27;5.78;;;1.42;;
42000;SDS011;27689;48.390;10.856;2023-12-22T04:40:11;7.10;;;1.63;;
42000;SDS011;27689;48.390;10.856;2023-12-22T04:42:55;3.55;;;1.55;;
42000;SDS011;27689;48.390;10.856;2023-12-22T04:45:39;4.77;;;1.17;;
42000;SDS011;27689;48.390;10.856;2023-12-22T04:48:23;4.13;;;1.00;;
42000;SDS011;27689;48.390;10.856;2023-12-22T04:51:07;5.45;;;1.20;;
42000;SDS011;27689;48.390;10.856;2023-12-22T04:53:51;2.85;;;0.90;;
42000;SDS011;27689;48.390;10.856;2023-12-22T04:56:35;3.67;;;1.05;;
42000;SDS011;27689;48.390;10.856;2023-12-22T04:59:19;2.55;;;1.17;;
42000;SDS011;27689;48.390;10.856;2023-12-22T05:02:03;5.05;;;1.70;;
42000;SDS011;27689;48.390;10.856;2023-12-22T05:04:47;6.32;;;0.98;;
42000;SDS011;27689;48.390;10.856;2023-12-22T05:07:31;5.03;;;0.90;;
42000;SDS011;27689;48.390;10.856;2023-12-22T05:10:15;5.57;;;1.42;;
42000;SDS011;27689;48.390;10.856;2023-12-22T05:12:58;9.10;;;0.90;;
42000;SDS011;27689;48.390;10.856;2023-12-22T05:15:42;4.70;;;0.97;;
42000;SDS011;27689;48.390;10.856;2023-12-22T05:18:26;3.83;;;0.88;;
42000;SDS011;27689;48.390;10.856;2023-12-22T05:21:13;2.17;;;1.00;;
42000;SDS011;27689;48.390;10.856;2023-12-22T05:24:00;5.25;;;0.88;;
42000;SDS011;27689;48.390;10.856;2023-12-22T05:26:44;6.07;;;2.22;;
42000;SDS011;27689;48.390;10.856;2023-12-22T05:29:28;4.50;;;1.30;;
42000;SDS011;27689;48.390;10.856;2023-12-22T05:32:12;3.50;;;0.80;;
42000;SDS011;27689;48.390;10.856;2023-12-22T05:34:56;1.48;;;0.80;;
42000;SDS011;27689;48.390;10.856;2023-12-22T05:37:40;1.50;;;0.50;;
42000;SDS011;27689;48.390;10.856;2023-12-22T05:40:24;2.70;;;0.80;;
42000;SDS011;27689;48.390;10.856;2023-12-22T05:43:08;0.98;;;0.52;;
42000;SDS011;27689;48.390;10.856;2023-12-22T05:45:52;2.63;;;0.93;;
42000;SDS011;27689;48.390;10.856;2023-12-22T05:48:36;1.80;;;0.80;;
42000;SDS011;27689;48.390;10.856;2023-12-22T05:51:20;2.08;;;0.80;;
42000;SDS011;27689;48.390;10.856;2023-12-22T05:54:06;1.65;;;0.95;;
42000;SDS011;27689;48.390;10.856;2023-12-22T05:56:51;3.05;;;1.00;;
42000;SDS011;27689;48.390;10.856;2023-12-22T05:59:35;4.25;;;1.00;;
42000;SDS011;27689;48.390;10.856;2023-12-22T06:02:19;2.88;;;1.35;;
42000;SDS011;27689;48.390;10.856;2023-12-22T06:05:03;1.30;;;0.77;;
42000;SDS011;27689;48.390;10.856;2023-12-22T06:07:47;1.10;;;0.80;;
42000;SDS011;27689;48.390;10.856;2023-12-22T06:10:32;1.92;;;0.80;;
42000;SDS011;27689;48.390;10.856;2023-12-22T06:13:16;5.53;;;1.00;;
42000;SDS011;27689;48.390;10.856;2023-12-22T06:16:04;4.00;;;1.10;;
42000;SDS011;27689;48.390;10.856;2023-12-22T06:18:49;4.57;;;0.90;;
42000;SDS011;27689;48.390;10.856;2023-12-22T06:21:32;5.10;;;1.07;;
42000;SDS011;27689;48.390;10.856;2023-12-22T06:24:16;6.72;;;1.10;;
42000;SDS011;27689;48.390;10.856;2023-12-22T06:27:00;4.03;;;1.20;;
42000;SDS011;27689;48.390;10.856;2023-12-22T06:29:44;6.17;;;1.17;;
42000;SDS011;27689;48.390;10.856;2023-12-22T06:32:28;3.15;;;1.00;;
42000;SDS011;27689;48.390;10.856;2023-12-22T06:35:12;5.35;;;1.08;;
42000;SDS011;27689;48.390;10.856;2023-12-22T06:37:56;2.28;;;0.80;;
42000;SDS011;27689;48.390;10.856;2023-12-22T06:40:42;5.95;;;1.30;;
42000;SDS011;27689;48.390;10.856;2023-12-22T06:43:26;7.25;;;1.17;;
42000;SDS011;27689;48.390;10.856;2023-12-22T06:46:16;6.10;;;1.17;;
42000;SDS011;27689;48.390;10.856;2023-12-22T06:49:01;4.68;;;1.17;;
42000;SDS011;27689;48.390;10.856;2023-12-22T06:51:45;6.57;;;1.40;;
42000;SDS011;27689;48.390;10.856;2023-12-22T06:54:29;3.78;;;1.42;;
42000;SDS011;27689;48.390;10.856;2023-12-22T06:57:13;3.75;;;1.05;;
42000;SDS011;27689;48.390;10.856;2023-12-22T06:59:57;4.83;;;1.10;;
42000;SDS011;27689;48.390;10.856;2023-12-22T07:02:41;4.30;;;1.40;;
42000;SDS011;27689;48.390;10.856;2023-12-22T07:05:32;4.57;;;1.33;;
42000;SDS011;27689;48.390;10.856;2023-12-22T07:08:16;7.60;;;1.20;;
42000;SDS011;27689;48.390;10.856;2023-12-22T07:11:00;4.32;;;1.30;;
42000;SDS011;27689;48.390;10.856;2023-12-22T07:13:44;8.82;;;1.50;;
42000;SDS011;27689;48.390;10.856;2023-12-22T07:16:29;6.53;;;1.30;;
42000;SDS011;27689;48.390;10.856;2023-12-22T07:19:13;6.40;;;1.35;;
42000;SDS011;27689;48.390;10.856;2023-12-22T07:21:57;5.60;;;1.60;;
42000;SDS011;27689;48.390;10.856;2023-12-22T07:24:41;5.97;;;1.50;;
42000;SDS011;27689;48.390;10.856;2023-12-22T07:27:25;3.28;;;1.10;;
42000;SDS011;27689;48.390;10.856;2023-12-22T07:30:09;7.65;;;1.38;;
42000;SDS011;27689;48.390;10.856;2023-12-22T07:32:55;7.57;;;2.05;;
42000;SDS011;27689;48.390;10.856;2023-12-22T07:35:39;6.38;;;1.33;;
42000;SDS011;27689;48.390;10.856;2023-12-22T07:38:23;7.32;;;2.15;;
42000;SDS011;27689;48.390;10.856;2023-12-22T07:41:07;8.25;;;1.85;;
42000;SDS011;27689;48.390;10.856;2023-12-22T07:43:51;7.22;;;2.17;;
42000;SDS011;27689;48.390;10.856;2023-12-22T07:46:35;10.55;;;1.55;;
42000;SDS011;27689;48.390;10.856;2023-12-22T07:49:19;8.57;;;1.20;;
42000;SDS011;27689;48.390;10.856;2023-12-22T07:52:03;7.20;;;1.40;;
42000;SDS011;27689;48.390;10.856;2023-12-22T07:54:48;4.97;;;1.20;;
42000;SDS011;27689;48.390;10.856;2023-12-22T07:57:32;6.75;;;1.30;;
42000;SDS011;27689;48.390;10.856;2023-12-22T08:00:17;3.67;;;1.20;;
42000;SDS011;27689;48.390;10.856;2023-12-22T08:03:01;6.35;;;1.48;;
42000;SDS011;27689;48.390;10.856;2023-12-22T08:05:45;6.70;;;2.28;;
42000;SDS011;27689;48.390;10.856;2023-12-22T08:08:29;5.45;;;1.95;;
42000;SDS011;27689;48.390;10.856;2023-12-22T08:11:14;8.80;;;2.88;;
42000;SDS011;27689;48.390;10.856;2023-12-22T08:13:57;9.17;;;3.60;;
42000;SDS011;27689;48.390;10.856;2023-12-22T08:16:41;7.93;;;2.40;;
42000;SDS011;27689;48.390;10.856;2023-12-22T08:19:27;6.18;;;2.90;;
42000;SDS011;27689;48.390;10.856;2023-12-22T08:22:12;12.93;;;4.45;;
42000;SDS011;27689;48.390;10.856;2023-12-22T08:24:58;6.28;;;2.22;;
42000;SDS011;27689;48.390;10.856;2023-12-22T08:27:42;9.73;;;1.87;;
42000;SDS011;27689;48.390;10.856;2023-12-22T08:30:26;5.50;;;1.33;;
42000;SDS011;27689;48.390;10.856;2023-12-22T08:33:10;4.57;;;1.98;;
42000;SDS011;27689;48.390;10.856;2023-12-22T08:35:54;5.15;;;1.42;;
42000;SDS011;27689;48.390;10.856;2023-12-22T08:38:38;3.55;;;1.42;;
42000;SDS011;27689;48.390;10.856;2023-12-22T08:41:24;4.78;;;1.10;;
42000;SDS011;27689;48.390;10.856;2023-12-22T08:44:07;5.15;;;1.85;;
42000;SDS011;27689;48.390;10.856;2023-12-22T08:46:51;9.32;;;1.67;;
42000;SDS011;27689;48.390;10.856;2023-12-22T08:49:35;5.32;;;1.85;;
42000;SDS011;27689;48.390;10.856;2023-12-22T08:52:19;9.10;;;1.60;;
42000;SDS011;27689;48.390;10.856;2023-12-22T08:55:03;8.68;;;1.88;;
42000;SDS011;27689;48.390;10.856;2023-12-22T08:57:49;6.40;;;1.27;;
42000;SDS011;27689;48.390;10.856;2023-12-22T09:00:33;5.65;;;1.10;;
42000;SDS011;27689;48.390;10.856;2023-12-22T09:03:17;5.78;;;1.42;;
42000;SDS011;27689;48.390;10.856;2023-12-22T09:06:01;6.95;;;1.30;;
42000;SDS011;27689;48.390;10.856;2023-12-22T09:08:45;7.20;;;1.38;;
42000;SDS011;27689;48.390;10.856;2023-12-22T09:11:29;5.40;;;2.97;;
42000;SDS011;27689;48.390;10.856;2023-12-22T09:14:13;6.35;;;1.98;;
42000;SDS011;27689;48.390;10.856;2023-12-22T09:16:57;11.02;;;1.42;;
42000;SDS011;27689;48.390;10.856;2023-12-22T09:19:41;6.00;;;1.65;;
42000;SDS011;27689;48.390;10.856;2023-12-22T09:22:26;5.57;;;1.40;;
42000;SDS011;27689;48.390;10.856;2023-12-22T09:25:10;5.97;;;1.25;;
42000;SDS011;27689;48.390;10.856;2023-12-22T09:27:54;9.70;;;1.23;;
42000;SDS011;27689;48.390;10.856;2023-12-22T09:30:38;5.63;;;1.02;;
42000;SDS011;27689;48.390;10.856;2023-12-22T09:33:22;3.00;;;0.88;;
42000;SDS011;27689;48.390;10.856;2023-12-22T09:36:09;2.45;;;0.80;;
42000;SDS011;27689;48.390;10.856;2023-12-22T09:38:54;4.00;;;0.93;;
42000;SDS011;27689;48.390;10.856;2023-12-22T09:41:38;2.67;;;1.05;;
42000;SDS011;27689;48.390;10.856;2023-12-22T09:44:22;4.17;;;1.10;;
42000;SDS011;27689;48.390;10.856;2023-12-22T09:47:06;2.40;;;1.10;;
42000;SDS011;27689;48.390;10.856;2023-12-22T09:49:50;2.42;;;0.90;;
42000;SDS011;27689;48.390;10.856;2023-12-22T09:52:35;1.35;;;0.70;;
42000;SDS011;27689;48.390;10.856;2023-12-22T09:55:23;3.13;;;0.77;;
42000;SDS011;27689;48.390;10.856;2023-12-22T09:58:09;1.83;;;0.80;;
42000;SDS011;27689;48.390;10.856;2023-12-22T10:00:54;3.85;;;1.10;;
42000;SDS011;27689;48.390;10.856;2023-12-22T10:03:40;2.72;;;1.00;;
42000;SDS011;27689;48.390;10.856;2023-12-22T10:06:27;2.58;;;0.90;;
42000;SDS011;27689;48.390;10.856;2023-12-22T10:09:11;2.10;;;1.13;;
42000;SDS011;27689;48.390;10.856;2023-12-22T10:11:58;5.38;;;1.33;;
42000;SDS011;27689;48.390;10.856;2023-12-22T10:14:44;1.92;;;0.90;;
42000;SDS011;27689;48.390;10.856;2023-12-22T10:17:30;3.05;;;1.10;;
42000;SDS011;27689;48.390;10.856;2023-12-22T10:20:14;2.60;;;1.27;;
42000;SDS011;27689;48.390;10.856;2023-12-22T10:22:58;3.33;;;1.05;;
42000;SDS011;27689;48.390;10.856;2023-12-22T10:25:42;6.72;;;1.70;;
42000;SDS011;27689;48.390;10.856;2023-12-22T10:28:27;3.63;;;1.30;;
42000;SDS011;27689;48.390;10.856;2023-12-22T10:31:11;5.50;;;2.38;;
42000;SDS011;27689;48.390;10.856;2023-12-22T10:33:55;4.57;;;1.45;;
42000;SDS011;27689;48.390;10.856;2023-12-22T10:36:39;5.45;;;1.88;;
42000;SDS011;27689;48.390;10.856;2023-12-22T10:39:26;8.13;;;1.70;;
42000;SDS011;27689;48.390;10.856;2023-12-22T10:42:14;5.20;;;2.03;;
42000;SDS011;27689;48.390;10.856;2023-12-22T10:44:58;6.95;;;1.98;;
42000;SDS011;27689;48.390;10.856;2023-12-22T10:47:42;6.40;;;2.00;;
42000;SDS011;27689;48.390;10.856;2023-12-22T10:50:26;4.50;;;1.73;;
42000;SDS011;27689;48.390;10.856;2023-12-22T10:53:11;5.75;;;1.63;;
42000;SDS011;27689;48.390;10.856;2023-12-22T10:55:55;6.30;;;1.67;;
42000;SDS011;27689;48.390;10.856;2023-12-22T10:58:41;12.90;;;4.28;;
42000;SDS011;27689;48.390;10.856;2023-12-22T11:01:27;13.77;;;3.50;;
42000;SDS011;27689;48.390;10.856;2023-12-22T11:04:13;14.70;;;5.28;;
42000;SDS011;27689;48.390;10.856;2023-12-22T11:07:01;19.20;;;4.57;;
42000;SDS011;27689;48.390;10.856;2023-12-22T11:09:47;4.82;;;1.85;;
42000;SDS011;27689;48.390;10.856;2023-12-22T11:12:38;9.85;;;1.90;;
42000;SDS011;27689;48.390;10.856;2023-12-22T11:15:22;8.70;;;2.17;;
42000;SDS011;27689;48.390;10.856;2023-12-22T11:18:08;6.72;;;2.30;;
42000;SDS011;27689;48.390;10.856;2023-12-22T11:20:52;3.97;;;1.65;;
42000;SDS011;27689;48.390;10.856;2023-12-22T11:23:38;7.75;;;2.20;;
42000;SDS011;27689;48.390;10.856;2023-12-22T11:26:23;4.57;;;1.70;;
42000;SDS011;27689;48.390;10.856;2023-12-22T11:29:07;7.80;;;1.98;;
42000;SDS011;27689;48.390;10.856;2023-12-22T11:31:54;4.93;;;1.80;;
42000;SDS011;27689;48.390;10.856;2023-12-22T11:34:39;5.63;;;1.80;;
42000;SDS011;27689;48.390;10.856;2023-12-22T11:37:26;6.68;;;1.77;;
42000;SDS011;27689;48.390;10.856;2023-12-22T11:40:10;6.47;;;1.20;;
42000;SDS011;27689;48.390;10.856;2023-12-22T11:42:54;9.65;;;2.00;;
42000;SDS011;27689;48.390;10.856;2023-12-22T11:45:41;8.82;;;1.73;;
42000;SDS011;27689;48.390;10.856;2023-12-22T11:48:26;6.75;;;2.08;;
42000;SDS011;27689;48.390;10.856;2023-12-22T11:51:14;4.60;;;1.87;;
42000;SDS011;27689;48.390;10.856;2023-12-22T11:53:58;7.05;;;2.53;;
42000;SDS011;27689;48.390;10.856;2023-12-22T11:56:42;8.48;;;1.98;;
42000;SDS011;27689;48.390;10.856;2023-12-22T11:59:26;6.00;;;1.97;;
42000;SDS011;27689;48.390;10.856;2023-12-22T12:02:10;8.52;;;1.80;;
42000;SDS011;27689;48.390;10.856;2023-12-22T12:04:54;5.30;;;1.48;;
42000;SDS011;27689;48.390;10.856;2023-12-22T12:07:46;5.30;;;1.50;;
42000;SDS011;27689;48.390;10.856;2023-12-22T12:13:16;8.25;;;2.08;;
42000;SDS011;27689;48.390;10.856;2023-12-22T12:16:06;4.60;;;1.60;;
42000;SDS011;27689;48.390;10.856;2023-12-22T12:18:50;3.70;;;1.48;;
42000;SDS011;27689;48.390;10.856;2023-12-22T12:21:36;3.67;;;1.42;;
42000;SDS011;27689;48.390;10.856;2023-12-22T12:24:21;3.88;;;1.27;;
42000;SDS011;27689;48.390;10.856;2023-12-22T12:27:06;6.55;;;1.30;;
42000;SDS011;27689;48.390;10.856;2023-12-22T12:29:51;4.68;;;1.58;;
42000;SDS011;27689;48.390;10.856;2023-12-22T12:32:36;2.83;;;1.00;;
42000;SDS011;27689;48.390;10.856;2023-12-22T12:35:20;6.22;;;1.38;;
42000;SDS011;27689;48.390;10.856;2023-12-22T12:38:08;3.22;;;1.30;;
42000;SDS011;27689;48.390;10.856;2023-12-22T12:40:52;5.50;;;1.43;;
42000;SDS011;27689;48.390;10.856;2023-12-22T12:43:37;4.57;;;1.60;;
42000;SDS011;27689;48.390;10.856;2023-12-22T12:46:38;3.67;;;1.17;;
42000;SDS011;27689;48.390;10.856;2023-12-22T12:49:23;3.53;;;1.40;;
42000;SDS011;27689;48.390;10.856;2023-12-22T12:52:14;5.07;;;1.45;;
42000;SDS011;27689;48.390;10.856;2023-12-22T12:54:58;4.22;;;1.20;;
42000;SDS011;27689;48.390;10.856;2023-12-22T12:57:44;6.82;;;1.23;;
42000;SDS011;27689;48.390;10.856;2023-12-22T13:00:29;8.15;;;1.42;;
42000;SDS011;27689;48.390;10.856;2023-12-22T13:03:14;5.55;;;1.25;;
42000;SDS011;27689;48.390;10.856;2023-12-22T13:06:07;4.63;;;1.45;;
42000;SDS011;27689;48.390;10.856;2023-12-22T13:08:52;2.55;;;1.10;;
42000;SDS011;27689;48.390;10.856;2023-12-22T13:11:36;4.35;;;1.70;;
42000;SDS011;27689;48.390;10.856;2023-12-22T13:14:21;3.10;;;1.52;;
42000;SDS011;27689;48.390;10.856;2023-12-22T13:17:10;5.45;;;1.40;;
42000;SDS011;27689;48.390;10.856;2023-12-22T13:19:54;6.85;;;1.70;;
42000;SDS011;27689;48.390;10.856;2023-12-22T13:22:38;9.70;;;3.53;;
42000;SDS011;27689;48.390;10.856;2023-12-22T13:25:22;4.45;;;1.30;;
42000;SDS011;27689;48.390;10.856;2023-12-22T13:28:07;3.38;;;1.35;;
42000;SDS011;27689;48.390;10.856;2023-12-22T13:30:51;3.77;;;1.20;;
42000;SDS011;27689;48.390;10.856;2023-12-22T13:33:35;4.05;;;1.45;;
42000;SDS011;27689;48.390;10.856;2023-12-22T13:36:19;6.23;;;1.90;;
42000;SDS011;27689;48.390;10.856;2023-12-22T13:39:04;3.60;;;1.30;;
42000;SDS011;27689;48.390;10.856;2023-12-22T13:41:48;3.88;;;1.42;;
42000;SDS011;27689;48.390;10.856;2023-12-22T13:44:32;5.28;;;1.42;;
42000;SDS011;27689;48.390;10.856;2023-12-22T13:47:17;4.63;;;1.13;;
42000;SDS011;27689;48.390;10.856;2023-12-22T13:52:45;4.20;;;1.00;;
42000;SDS011;27689;48.390;10.856;2023-12-22T13:55:29;5.28;;;1.20;;
42000;SDS011;27689;48.390;10.856;2023-12-22T13:58:21;4.95;;;1.30;;
42000;SDS011;27689;48.390;10.856;2023-12-22T14:01:12;2.63;;;1.10;;
42000;SDS011;27689;48.390;10.856;2023-12-22T14:04:00;3.97;;;1.20;;
42000;SDS011;27689;48.390;10.856;2023-12-22T14:06:44;5.93;;;1.38;;
42000;SDS011;27689;48.390;10.856;2023-12-22T14:09:28;5.75;;;1.77;;
42000;SDS011;27689;48.390;10.856;2023-12-22T14:12:16;5.38;;;1.33;;
42000;SDS011;27689;48.390;10.856;2023-12-22T14:15:01;4.88;;;1.92;;
42000;SDS011;27689;48.390;10.856;2023-12-22T14:17:46;3.08;;;1.40;;
42000;SDS011;27689;48.390;10.856;2023-12-22T14:20:30;6.82;;;1.58;;
42000;SDS011;27689;48.390;10.856;2023-12-22T14:23:14;5.43;;;1.40;;
42000;SDS011;27689;48.390;10.856;2023-12-22T14:26:01;4.97;;;1.70;;
42000;SDS011;27689;48.390;10.856;2023-12-22T14:28:45;5.57;;;1.67;;
42000;SDS011;27689;48.390;10.856;2023-12-22T14:31:30;5.40;;;1.30;;
42000;SDS011;27689;48.390;10.856;2023-12-22T14:34:14;6.15;;;1.98;;
42000;SDS011;27689;48.390;10.856;2023-12-22T14:36:58;7.10;;;2.83;;
42000;SDS011;27689;48.390;10.856;2023-12-22T14:39:43;3.63;;;1.38;;
42000;SDS011;27689;48.390;10.856;2023-12-22T14:42:29;2.53;;;1.23;;
42000;SDS011;27689;48.390;10.856;2023-12-22T14:45:13;2.72;;;1.67;;
42000;SDS011;27689;48.390;10.856;2023-12-22T14:48:06;4.10;;;1.23;;
42000;SDS011;27689;48.390;10.856;2023-12-22T14:50:50;4.63;;;1.00;;
42000;SDS011;27689;48.390;10.856;2023-12-22T14:53:34;2.63;;;1.10;;
42000;SDS011;27689;48.390;10.856;2023-12-22T14:56:18;3.15;;;0.95;;
42000;SDS011;27689;48.390;10.856;2023-12-22T14:59:02;1.97;;;0.97;;
42000;SDS011;27689;48.390;10.856;2023-12-22T15:01:46;3.20;;;1.23;;
42000;SDS011;27689;48.390;10.856;2023-12-22T15:04:33;1.90;;;0.88;;
42000;SDS011;27689;48.390;10.856;2023-12-22T15:07:17;2.55;;;1.00;;
42000;SDS011;27689;48.390;10.856;2023-12-22T15:10:01;1.63;;;0.80;;
42000;SDS011;27689;48.390;10.856;2023-12-22T15:12:49;3.08;;;1.15;;
42000;SDS011;27689;48.390;10.856;2023-12-22T15:15:33;1.70;;;1.10;;
42000;SDS011;27689;48.390;10.856;2023-12-22T15:21:01;4.00;;;1.17;;
42000;SDS011;27689;48.390;10.856;2023-12-22T15:23:46;6.40;;;0.98;;
42000;SDS011;27689;48.390;10.856;2023-12-22T15:26:30;4.63;;;1.10;;
42000;SDS011;27689;48.390;10.856;2023-12-22T15:29:14;3.75;;;0.93;;
42000;SDS011;27689;48.390;10.856;2023-12-22T15:31:58;2.63;;;1.17;;
42000;SDS011;27689;48.390;10.856;2023-12-22T15:34:43;1.17;;;0.65;;
42000;SDS011;27689;48.390;10.856;2023-12-22T15:37:27;1.20;;;0.70;;
42000;SDS011;27689;48.390;10.856;2023-12-22T15:40:11;1.00;;;0.68;;
42000;SDS011;27689;48.390;10.856;2023-12-22T15:42:55;0.80;;;0.63;;
42000;SDS011;27689;48.390;10.856;2023-12-22T15:45:39;0.88;;;0.73;;
42000;SDS011;27689;48.390;10.856;2023-12-22T15:48:23;1.23;;;0.70;;
42000;SDS011;27689;48.390;10.856;2023-12-22T15:51:08;1.20;;;0.50;;
42000;SDS011;27689;48.390;10.856;2023-12-22T15:53:53;1.15;;;0.52;;
42000;SDS011;27689;48.390;10.856;2023-12-22T15:56:37;1.50;;;0.70;;
42000;SDS011;27689;48.390;10.856;2023-12-22T15:59:21;1.37;;;1.17;;
42000;SDS011;27689;48.390;10.856;2023-12-22T16:02:09;2.33;;;1.60;;
42000;SDS011;27689;48.390;10.856;2023-12-22T16:04:52;1.53;;;1.10;;
42000;SDS011;27689;48.390;10.856;2023-12-22T16:07:38;1.58;;;1.27;;
42000;SDS011;27689;48.390;10.856;2023-12-22T16:10:24;3.13;;;1.42;;
42000;SDS011;27689;48.390;10.856;2023-12-22T16:13:13;3.35;;;2.55;;
42000;SDS011;27689;48.390;10.856;2023-12-22T16:15:58;2.63;;;1.75;;
42000;SDS011;27689;48.390;10.856;2023-12-22T16:21:26;2.13;;;1.15;;
42000;SDS011;27689;48.390;10.856;2023-12-22T16:24:10;2.22;;;0.95;;
42000;SDS011;27689;48.390;10.856;2023-12-22T16:26:54;0.43;;;0.40;;
42000;SDS011;27689;48.390;10.856;2023-12-22T16:29:41;0.93;;;0.70;;